sensor_id;sensor_type;location;lat;lon;timestamp;P1;durP1;ratioP1;P2;durP2;ratioP2
6941;SDS011;3510;43.200;27.920;2023-08-21T05:19:37;9.23;;;5.30;;
6941;SDS011;3510;43.200;27.920;2023-08-21T05:22:04;7.18;;;5.63;;
6941;SDS011;3510;43.200;27.920;2023-08-21T05:24:46;9.25;;;6.18;;
6941;SDS011;3510;43.200;27.920;2023-08-21T05:27:13;15.02;;;5.80;;
6941;SDS011;3510;43.200;27.920;2023-08-21T05:29:39;11.63;;;5.55;;
6941;SDS011;3510;43.200;27.920;2023-08-21T05:32:06;7.40;;;5.53;;
6941;SDS011;3510;43.200;27.920;2023-08-21T05:34:32;10.80;;;5.13;;
6941;SDS011;3510;43.200;27.920;2023-08-21T05:36:59;10.65;;;5.65;;
6941;SDS011;3510;43.200;27.920;2023-08-21T05:39:26;9.63;;;5.88;;
6941;SDS011;3510;43.200;27.920;2023-08-21T05:41:53;8.90;;;5.72;;
6941;SDS011;3510;43.200;27.920;2023-08-21T05:44:20;13.73;;;6.05;;
6941;SDS011;3510;43.200;27.920;2023-08-21T05:46:47;10.57;;;5.93;;
6941;SDS011;3510;43.200;27.920;2023-08-21T05:49:13;7.32;;;5.22;;
6941;SDS011;3510;43.200;27.920;2023-08-21T05:51:40;12.07;;;7.35;;
6941;SDS011;3510;43.200;27.920;2023-08-21T05:54:07;9.15;;;5.20;;
6941;SDS011;3510;43.200;27.920;2023-08-21T05:56:33;8.55;;;5.50;;
6941;SDS011;3510;43.200;27.920;2023-08-21T05:59:01;12.63;;;5.80;;
6941;SDS011;3510;43.200;27.920;2023-08-21T06:01:28;8.25;;;5.13;;
6941;SDS011;3510;43.200;27.920;2023-08-21T06:04:09;9.32;;;6.07;;
6941;SDS011;3510;43.200;27.920;2023-08-21T06:06:35;8.93;;;5.60;;
6941;SDS011;3510;43.200;27.920;2023-08-21T06:09:02;12.07;;;5.60;;
6941;SDS011;3510;43.200;27.920;2023-08-21T06:11:29;8.93;;;5.00;;
6941;SDS011;3510;43.200;27.920;2023-08-21T06:13:56;9.63;;;6.40;;
6941;SDS011;3510;43.200;27.920;2023-08-21T06:16:25;13.73;;;5.75;;
6941;SDS011;3510;43.200;27.920;2023-08-21T06:19:05;7.90;;;5.68;;
6941;SDS011;3510;43.200;27.920;2023-08-21T06:21:32;13.55;;;6.00;;
6941;SDS011;3510;43.200;27.920;2023-08-21T06:23:59;7.30;;;6.60;;
6941;SDS011;3510;43.200;27.920;2023-08-21T06:26:26;11.10;;;5.10;;
6941;SDS011;3510;43.200;27.920;2023-08-21T06:28:53;8.55;;;5.15;;
6941;SDS011;3510;43.200;27.920;2023-08-21T06:31:20;6.95;;;5.85;;
6941;SDS011;3510;43.200;27.920;2023-08-21T06:33:48;6.50;;;5.05;;
6941;SDS011;3510;43.200;27.920;2023-08-21T06:36:15;10.30;;;5.07;;
6941;SDS011;3510;43.200;27.920;2023-08-21T06:38:42;7.22;;;5.50;;
6941;SDS011;3510;43.200;27.920;2023-08-21T06:41:09;11.00;;;5.68;;
6941;SDS011;3510;43.200;27.920;2023-08-21T06:43:36;5.70;;;5.00;;
6941;SDS011;3510;43.200;27.920;2023-08-21T06:46:03;11.85;;;4.82;;
6941;SDS011;3510;43.200;27.920;2023-08-21T06:48:29;5.40;;;5.03;;
6941;SDS011;3510;43.200;27.920;2023-08-21T06:50:57;11.98;;;5.82;;
6941;SDS011;3510;43.200;27.920;2023-08-21T06:53:24;16.20;;;7.00;;
6941;SDS011;3510;43.200;27.920;2023-08-21T06:55:51;8.88;;;4.85;;
6941;SDS011;3510;43.200;27.920;2023-08-21T06:58:18;13.75;;;6.20;;
6941;SDS011;3510;43.200;27.920;2023-08-21T07:00:47;6.30;;;5.70;;
6941;SDS011;3510;43.200;27.920;2023-08-21T07:03:15;6.07;;;5.20;;
6941;SDS011;3510;43.200;27.920;2023-08-21T07:05:45;5.93;;;5.28;;
6941;SDS011;3510;43.200;27.920;2023-08-21T07:08:15;11.13;;;6.10;;
6941;SDS011;3510;43.200;27.920;2023-08-21T07:10:41;6.47;;;5.43;;
6941;SDS011;3510;43.200;27.920;2023-08-21T07:13:08;11.35;;;5.38;;
6941;SDS011;3510;43.200;27.920;2023-08-21T07:15:35;13.95;;;5.47;;
6941;SDS011;3510;43.200;27.920;2023-08-21T07:18:02;5.93;;;5.25;;
6941;SDS011;3510;43.200;27.920;2023-08-21T07:20:29;6.45;;;5.18;;
6941;SDS011;3510;43.200;27.920;2023-08-21T07:22:56;11.40;;;5.70;;
6941;SDS011;3510;43.200;27.920;2023-08-21T07:34:34;11.32;;;5.55;;
6941;SDS011;3510;43.200;27.920;2023-08-21T07:37:00;6.65;;;4.90;;
6941;SDS011;3510;43.200;27.920;2023-08-21T07:39:27;7.35;;;5.32;;
6941;SDS011;3510;43.200;27.920;2023-08-21T07:42:08;7.22;;;5.43;;
6941;SDS011;3510;43.200;27.920;2023-08-21T07:44:51;7.15;;;5.72;;
6941;SDS011;3510;43.200;27.920;2023-08-21T07:47:18;12.07;;;5.43;;
6941;SDS011;3510;43.200;27.920;2023-08-21T07:52:43;6.82;;;5.50;;
6941;SDS011;3510;43.200;27.920;2023-08-21T07:55:24;9.38;;;5.53;;
6941;SDS011;3510;43.200;27.920;2023-08-21T07:57:50;10.30;;;6.53;;
6941;SDS011;3510;43.200;27.920;2023-08-21T08:00:17;5.57;;;5.05;;
6941;SDS011;3510;43.200;27.920;2023-08-21T08:02:45;12.85;;;5.75;;
6941;SDS011;3510;43.200;27.920;2023-08-21T08:05:11;7.38;;;5.28;;
6941;SDS011;3510;43.200;27.920;2023-08-21T08:07:38;7.45;;;5.45;;
6941;SDS011;3510;43.200;27.920;2023-08-21T08:10:07;22.45;;;5.53;;
6941;SDS011;3510;43.200;27.920;2023-08-21T08:12:33;9.20;;;5.50;;
6941;SDS011;3510;43.200;27.920;2023-08-21T08:15:00;25.50;;;6.32;;
6941;SDS011;3510;43.200;27.920;2023-08-21T08:17:27;14.48;;;6.25;;
6941;SDS011;3510;43.200;27.920;2023-08-21T08:19:54;14.23;;;6.32;;
6941;SDS011;3510;43.200;27.920;2023-08-21T08:22:21;10.75;;;6.65;;
6941;SDS011;3510;43.200;27.920;2023-08-21T08:24:47;16.48;;;6.60;;
6941;SDS011;3510;43.200;27.920;2023-08-21T08:36:18;7.85;;;5.50;;
6941;SDS011;3510;43.200;27.920;2023-08-21T08:38:59;7.95;;;6.10;;
6941;SDS011;3510;43.200;27.920;2023-08-21T08:41:27;25.65;;;8.35;;
6941;SDS011;3510;43.200;27.920;2023-08-21T08:44:04;91.47;;;11.95;;
6941;SDS011;3510;43.200;27.920;2023-08-21T08:46:32;15.48;;;6.85;;
6941;SDS011;3510;43.200;27.920;2023-08-21T08:52:24;7.30;;;5.50;;
6941;SDS011;3510;43.200;27.920;2023-08-21T08:54:52;14.68;;;5.47;;
6941;SDS011;3510;43.200;27.920;2023-08-21T08:57:21;23.85;;;7.65;;
6941;SDS011;3510;43.200;27.920;2023-08-21T08:59:48;14.60;;;5.95;;
6941;SDS011;3510;43.200;27.920;2023-08-21T09:02:15;7.32;;;5.45;;
6941;SDS011;3510;43.200;27.920;2023-08-21T09:04:42;7.00;;;5.72;;
6941;SDS011;3510;43.200;27.920;2023-08-21T09:07:09;10.63;;;5.65;;
6941;SDS011;3510;43.200;27.920;2023-08-21T09:09:38;31.35;;;8.15;;
6941;SDS011;3510;43.200;27.920;2023-08-21T09:12:09;8.68;;;5.85;;
6941;SDS011;3510;43.200;27.920;2023-08-21T09:14:38;8.43;;;5.68;;
6941;SDS011;3510;43.200;27.920;2023-08-21T09:17:06;12.25;;;5.30;;
6941;SDS011;3510;43.200;27.920;2023-08-21T09:19:33;8.32;;;6.38;;
6941;SDS011;3510;43.200;27.920;2023-08-21T09:22:03;6.30;;;5.68;;
6941;SDS011;3510;43.200;27.920;2023-08-21T09:24:34;5.68;;;4.78;;
6941;SDS011;3510;43.200;27.920;2023-08-21T09:27:02;8.68;;;5.00;;
6941;SDS011;3510;43.200;27.920;2023-08-21T09:29:37;8.43;;;5.35;;
6941;SDS011;3510;43.200;27.920;2023-08-21T09:32:05;11.63;;;5.97;;
6941;SDS011;3510;43.200;27.920;2023-08-21T09:34:33;18.73;;;5.80;;
6941;SDS011;3510;43.200;27.920;2023-08-21T09:37:04;8.15;;;4.57;;
6941;SDS011;3510;43.200;27.920;2023-08-21T09:39:46;7.93;;;5.72;;
6941;SDS011;3510;43.200;27.920;2023-08-21T09:42:28;5.35;;;4.82;;
6941;SDS011;3510;43.200;27.920;2023-08-21T09:44:55;5.60;;;5.05;;
6941;SDS011;3510;43.200;27.920;2023-08-21T09:47:23;6.28;;;4.75;;
6941;SDS011;3510;43.200;27.920;2023-08-21T09:49:52;5.00;;;4.70;;
6941;SDS011;3510;43.200;27.920;2023-08-21T09:52:19;9.85;;;4.75;;
6941;SDS011;3510;43.200;27.920;2023-08-21T09:54:51;10.15;;;4.78;;
6941;SDS011;3510;43.200;27.920;2023-08-21T09:57:21;7.43;;;4.95;;
6941;SDS011;3510;43.200;27.920;2023-08-21T09:59:50;8.18;;;4.55;;
6941;SDS011;3510;43.200;27.920;2023-08-21T10:02:18;5.32;;;4.30;;
6941;SDS011;3510;43.200;27.920;2023-08-21T10:04:46;4.90;;;4.50;;
6941;SDS011;3510;43.200;27.920;2023-08-21T10:07:15;6.65;;;4.68;;
6941;SDS011;3510;43.200;27.920;2023-08-21T10:09:58;7.32;;;5.13;;
6941;SDS011;3510;43.200;27.920;2023-08-21T10:12:25;10.68;;;4.50;;
6941;SDS011;3510;43.200;27.920;2023-08-21T10:14:54;9.85;;;4.50;;
6941;SDS011;3510;43.200;27.920;2023-08-21T10:17:21;8.95;;;5.15;;
6941;SDS011;3510;43.200;27.920;2023-08-21T10:19:50;5.68;;;5.07;;
6941;SDS011;3510;43.200;27.920;2023-08-21T10:25:16;5.80;;;4.90;;
6941;SDS011;3510;43.200;27.920;2023-08-21T10:27:55;5.38;;;4.95;;
6941;SDS011;3510;43.200;27.920;2023-08-21T10:30:25;5.43;;;4.30;;
6941;SDS011;3510;43.200;27.920;2023-08-21T10:32:54;4.63;;;4.25;;
6941;SDS011;3510;43.200;27.920;2023-08-21T10:35:23;11.07;;;5.03;;
6941;SDS011;3510;43.200;27.920;2023-08-21T10:40:37;7.10;;;4.63;;
6941;SDS011;3510;43.200;27.920;2023-08-21T10:43:14;5.28;;;4.80;;
6941;SDS011;3510;43.200;27.920;2023-08-21T11:04:54;9.20;;;5.28;;
6941;SDS011;3510;43.200;27.920;2023-08-21T11:07:21;5.65;;;5.35;;
6941;SDS011;3510;43.200;27.920;2023-08-21T11:09:49;18.05;;;6.97;;
6941;SDS011;3510;43.200;27.920;2023-08-21T11:12:17;9.23;;;6.13;;
6941;SDS011;3510;43.200;27.920;2023-08-21T11:15:00;9.52;;;6.40;;
6941;SDS011;3510;43.200;27.920;2023-08-21T11:17:42;17.15;;;7.45;;
6941;SDS011;3510;43.200;27.920;2023-08-21T11:20:09;18.08;;;7.03;;
6941;SDS011;3510;43.200;27.920;2023-08-21T11:22:36;8.05;;;6.28;;
6941;SDS011;3510;43.200;27.920;2023-08-21T11:25:06;14.35;;;7.18;;
6941;SDS011;3510;43.200;27.920;2023-08-21T11:27:33;21.67;;;7.03;;
6941;SDS011;3510;43.200;27.920;2023-08-21T11:30:00;11.25;;;7.25;;
6941;SDS011;3510;43.200;27.920;2023-08-21T11:32:27;13.45;;;7.30;;
6941;SDS011;3510;43.200;27.920;2023-08-21T11:34:56;29.55;;;7.78;;
6941;SDS011;3510;43.200;27.920;2023-08-21T11:37:26;11.27;;;6.88;;
6941;SDS011;3510;43.200;27.920;2023-08-21T11:39:54;9.07;;;5.93;;
6941;SDS011;3510;43.200;27.920;2023-08-21T11:42:23;24.33;;;7.38;;
6941;SDS011;3510;43.200;27.920;2023-08-21T11:44:56;8.35;;;5.97;;
6941;SDS011;3510;43.200;27.920;2023-08-21T11:47:23;18.58;;;7.18;;
6941;SDS011;3510;43.200;27.920;2023-08-21T11:49:58;96.75;;;11.52;;
6941;SDS011;3510;43.200;27.920;2023-08-21T11:52:29;22.05;;;7.65;;
6941;SDS011;3510;43.200;27.920;2023-08-21T11:54:57;13.02;;;7.07;;
6941;SDS011;3510;43.200;27.920;2023-08-21T11:57:24;7.63;;;6.72;;
6941;SDS011;3510;43.200;27.920;2023-08-21T11:59:53;127.18;;;15.40;;
6941;SDS011;3510;43.200;27.920;2023-08-21T12:02:37;10.32;;;6.75;;
6941;SDS011;3510;43.200;27.920;2023-08-21T12:36:46;26.42;;;7.03;;
6941;SDS011;3510;43.200;27.920;2023-08-21T12:39:13;9.18;;;6.07;;
6941;SDS011;3510;43.200;27.920;2023-08-21T12:41:41;17.27;;;7.40;;
6941;SDS011;3510;43.200;27.920;2023-08-21T12:44:07;13.63;;;6.60;;
6941;SDS011;3510;43.200;27.920;2023-08-21T12:46:34;14.95;;;6.57;;
6941;SDS011;3510;43.200;27.920;2023-08-21T12:49:01;15.77;;;7.03;;
6941;SDS011;3510;43.200;27.920;2023-08-21T12:51:28;11.30;;;7.53;;
6941;SDS011;3510;43.200;27.920;2023-08-21T12:53:56;15.95;;;8.13;;
6941;SDS011;3510;43.200;27.920;2023-08-21T12:56:23;35.50;;;8.35;;
6941;SDS011;3510;43.200;27.920;2023-08-21T12:58:50;20.52;;;7.68;;
6941;SDS011;3510;43.200;27.920;2023-08-21T13:01:17;30.25;;;7.43;;
6941;SDS011;3510;43.200;27.920;2023-08-21T13:03:44;12.57;;;7.90;;
6941;SDS011;3510;43.200;27.920;2023-08-21T13:06:12;33.05;;;8.65;;
6941;SDS011;3510;43.200;27.920;2023-08-21T13:08:38;62.78;;;10.63;;
6941;SDS011;3510;43.200;27.920;2023-08-21T13:11:07;43.83;;;8.65;;
6941;SDS011;3510;43.200;27.920;2023-08-21T13:13:35;12.02;;;7.30;;
6941;SDS011;3510;43.200;27.920;2023-08-21T13:16:01;15.68;;;7.32;;
6941;SDS011;3510;43.200;27.920;2023-08-21T13:18:28;18.00;;;8.18;;
6941;SDS011;3510;43.200;27.920;2023-08-21T13:20:55;10.35;;;6.50;;
6941;SDS011;3510;43.200;27.920;2023-08-21T13:23:22;18.05;;;8.30;;
6941;SDS011;3510;43.200;27.920;2023-08-21T13:25:49;29.40;;;9.40;;
6941;SDS011;3510;43.200;27.920;2023-08-21T13:28:18;11.40;;;8.00;;
6941;SDS011;3510;43.200;27.920;2023-08-21T13:30:44;13.52;;;7.88;;
6941;SDS011;3510;43.200;27.920;2023-08-21T13:33:11;18.42;;;7.07;;
6941;SDS011;3510;43.200;27.920;2023-08-21T13:35:40;17.30;;;7.53;;
6941;SDS011;3510;43.200;27.920;2023-08-21T13:38:06;45.90;;;10.00;;
6941;SDS011;3510;43.200;27.920;2023-08-21T13:40:33;36.20;;;8.80;;
6941;SDS011;3510;43.200;27.920;2023-08-21T13:43:00;15.75;;;8.70;;
6941;SDS011;3510;43.200;27.920;2023-08-21T13:45:29;22.92;;;8.43;;
6941;SDS011;3510;43.200;27.920;2023-08-21T13:47:56;218.05;;;21.83;;
6941;SDS011;3510;43.200;27.920;2023-08-21T13:50:23;123.85;;;14.93;;
6941;SDS011;3510;43.200;27.920;2023-08-21T13:52:50;9.48;;;7.57;;
6941;SDS011;3510;43.200;27.920;2023-08-21T13:55:17;84.70;;;11.27;;
6941;SDS011;3510;43.200;27.920;2023-08-21T13:57:44;63.97;;;9.57;;
6941;SDS011;3510;43.200;27.920;2023-08-21T14:00:11;58.03;;;9.65;;
6941;SDS011;3510;43.200;27.920;2023-08-21T14:02:40;107.70;;;12.00;;
6941;SDS011;3510;43.200;27.920;2023-08-21T14:05:07;11.93;;;6.93;;
6941;SDS011;3510;43.200;27.920;2023-08-21T14:07:35;29.30;;;7.30;;
6941;SDS011;3510;43.200;27.920;2023-08-21T14:10:02;109.85;;;12.35;;
6941;SDS011;3510;43.200;27.920;2023-08-21T14:12:30;44.78;;;8.95;;
6941;SDS011;3510;43.200;27.920;2023-08-21T14:14:57;59.50;;;8.32;;
6941;SDS011;3510;43.200;27.920;2023-08-21T14:17:24;32.63;;;7.47;;
6941;SDS011;3510;43.200;27.920;2023-08-21T14:19:52;18.60;;;7.00;;
6941;SDS011;3510;43.200;27.920;2023-08-21T14:22:19;17.23;;;6.75;;
6941;SDS011;3510;43.200;27.920;2023-08-21T14:24:46;14.70;;;6.70;;
6941;SDS011;3510;43.200;27.920;2023-08-21T14:27:13;14.02;;;6.20;;
6941;SDS011;3510;43.200;27.920;2023-08-21T14:29:41;21.23;;;7.47;;
6941;SDS011;3510;43.200;27.920;2023-08-21T14:32:08;22.98;;;8.05;;
6941;SDS011;3510;43.200;27.920;2023-08-21T14:34:35;48.95;;;8.48;;
6941;SDS011;3510;43.200;27.920;2023-08-21T14:37:03;38.95;;;8.52;;
6941;SDS011;3510;43.200;27.920;2023-08-21T14:39:30;132.20;;;13.25;;
6941;SDS011;3510;43.200;27.920;2023-08-21T14:41:57;25.95;;;7.35;;
6941;SDS011;3510;43.200;27.920;2023-08-21T14:44:24;17.52;;;6.18;;
6941;SDS011;3510;43.200;27.920;2023-08-21T14:46:52;31.33;;;7.72;;
6941;SDS011;3510;43.200;27.920;2023-08-21T14:49:20;25.95;;;7.20;;
6941;SDS011;3510;43.200;27.920;2023-08-21T14:51:47;13.95;;;5.78;;
6941;SDS011;3510;43.200;27.920;2023-08-21T14:54:15;23.35;;;6.28;;
6941;SDS011;3510;43.200;27.920;2023-08-21T14:56:42;50.83;;;8.27;;
6941;SDS011;3510;43.200;27.920;2023-08-21T14:59:09;40.70;;;9.10;;
6941;SDS011;3510;43.200;27.920;2023-08-21T15:01:36;14.77;;;6.20;;
6941;SDS011;3510;43.200;27.920;2023-08-21T15:04:03;38.35;;;8.55;;
6941;SDS011;3510;43.200;27.920;2023-08-21T15:06:30;12.82;;;6.53;;
6941;SDS011;3510;43.200;27.920;2023-08-21T15:08:56;28.73;;;7.47;;
6941;SDS011;3510;43.200;27.920;2023-08-21T15:11:24;25.40;;;8.07;;
6941;SDS011;3510;43.200;27.920;2023-08-21T15:13:51;19.75;;;6.88;;
6941;SDS011;3510;43.200;27.920;2023-08-21T15:16:18;11.70;;;6.68;;
6941;SDS011;3510;43.200;27.920;2023-08-21T15:18:45;17.17;;;7.60;;
6941;SDS011;3510;43.200;27.920;2023-08-21T15:21:16;7.65;;;6.25;;
6941;SDS011;3510;43.200;27.920;2023-08-21T15:23:43;34.35;;;7.82;;
6941;SDS011;3510;43.200;27.920;2023-08-21T15:26:09;10.68;;;6.88;;
6941;SDS011;3510;43.200;27.920;2023-08-21T15:28:37;19.63;;;8.30;;
6941;SDS011;3510;43.200;27.920;2023-08-21T15:31:04;11.73;;;6.30;;
6941;SDS011;3510;43.200;27.920;2023-08-21T15:33:32;10.98;;;6.80;;
6941;SDS011;3510;43.200;27.920;2023-08-21T15:35:59;16.25;;;6.70;;
6941;SDS011;3510;43.200;27.920;2023-08-21T15:38:25;15.52;;;6.53;;
6941;SDS011;3510;43.200;27.920;2023-08-21T15:40:52;15.40;;;5.90;;
6941;SDS011;3510;43.200;27.920;2023-08-21T15:43:18;8.13;;;5.68;;
6941;SDS011;3510;43.200;27.920;2023-08-21T15:45:46;12.75;;;6.03;;
6941;SDS011;3510;43.200;27.920;2023-08-21T15:48:13;30.95;;;9.68;;
6941;SDS011;3510;43.200;27.920;2023-08-21T15:50:39;13.38;;;7.07;;
6941;SDS011;3510;43.200;27.920;2023-08-21T15:53:06;21.77;;;6.40;;
6941;SDS011;3510;43.200;27.920;2023-08-21T15:55:33;31.23;;;7.45;;
6941;SDS011;3510;43.200;27.920;2023-08-21T15:57:59;104.15;;;11.88;;
6941;SDS011;3510;43.200;27.920;2023-08-21T16:00:26;13.45;;;5.90;;
6941;SDS011;3510;43.200;27.920;2023-08-21T16:02:55;12.43;;;6.07;;
6941;SDS011;3510;43.200;27.920;2023-08-21T16:05:21;20.45;;;5.88;;
6941;SDS011;3510;43.200;27.920;2023-08-21T16:07:48;15.40;;;5.88;;
6941;SDS011;3510;43.200;27.920;2023-08-21T16:10:15;8.45;;;5.65;;
6941;SDS011;3510;43.200;27.920;2023-08-21T16:12:42;16.48;;;5.22;;
6941;SDS011;3510;43.200;27.920;2023-08-21T16:15:09;11.82;;;5.97;;
6941;SDS011;3510;43.200;27.920;2023-08-21T16:17:35;20.55;;;5.97;;
6941;SDS011;3510;43.200;27.920;2023-08-21T16:20:04;14.10;;;6.55;;
6941;SDS011;3510;43.200;27.920;2023-08-21T16:22:32;14.07;;;5.30;;
6941;SDS011;3510;43.200;27.920;2023-08-21T16:25:00;16.08;;;6.13;;
6941;SDS011;3510;43.200;27.920;2023-08-21T16:27:26;30.95;;;7.65;;
6941;SDS011;3510;43.200;27.920;2023-08-21T16:29:54;16.75;;;6.85;;
6941;SDS011;3510;43.200;27.920;2023-08-21T16:32:20;10.77;;;6.18;;
6941;SDS011;3510;43.200;27.920;2023-08-21T16:34:47;29.35;;;7.97;;
6941;SDS011;3510;43.200;27.920;2023-08-21T16:37:15;13.93;;;7.20;;
6941;SDS011;3510;43.200;27.920;2023-08-21T16:39:43;60.85;;;9.45;;
6941;SDS011;3510;43.200;27.920;2023-08-21T16:42:09;22.40;;;7.72;;
6941;SDS011;3510;43.200;27.920;2023-08-21T16:44:37;14.35;;;6.85;;
6941;SDS011;3510;43.200;27.920;2023-08-21T16:47:03;28.10;;;7.70;;
6941;SDS011;3510;43.200;27.920;2023-08-21T16:49:32;26.80;;;7.18;;
6941;SDS011;3510;43.200;27.920;2023-08-21T16:51:59;36.45;;;8.13;;
6941;SDS011;3510;43.200;27.920;2023-08-21T16:54:27;20.50;;;6.53;;
6941;SDS011;3510;43.200;27.920;2023-08-21T16:56:54;8.40;;;6.45;;
6941;SDS011;3510;43.200;27.920;2023-08-21T16:59:20;13.63;;;6.25;;
6941;SDS011;3510;43.200;27.920;2023-08-21T17:01:47;8.68;;;6.07;;
6941;SDS011;3510;43.200;27.920;2023-08-21T17:04:14;12.57;;;6.10;;
6941;SDS011;3510;43.200;27.920;2023-08-21T17:06:41;19.00;;;6.30;;
6941;SDS011;3510;43.200;27.920;2023-08-21T17:09:07;10.60;;;6.03;;
6941;SDS011;3510;43.200;27.920;2023-08-21T17:11:38;11.70;;;5.40;;
6941;SDS011;3510;43.200;27.920;2023-08-21T17:14:05;10.45;;;5.97;;
6941;SDS011;3510;43.200;27.920;2023-08-21T17:16:31;24.55;;;6.55;;
6941;SDS011;3510;43.200;27.920;2023-08-21T17:18:58;11.52;;;6.38;;
6941;SDS011;3510;43.200;27.920;2023-08-21T17:21:25;13.63;;;6.07;;
6941;SDS011;3510;43.200;27.920;2023-08-21T17:23:53;19.02;;;6.78;;
6941;SDS011;3510;43.200;27.920;2023-08-21T17:26:20;19.98;;;7.45;;
6941;SDS011;3510;43.200;27.920;2023-08-21T17:28:48;11.15;;;7.28;;
6941;SDS011;3510;43.200;27.920;2023-08-21T17:31:15;65.22;;;9.73;;
6941;SDS011;3510;43.200;27.920;2023-08-21T17:33:41;63.20;;;9.60;;
6941;SDS011;3510;43.200;27.920;2023-08-21T17:36:08;31.15;;;7.50;;
6941;SDS011;3510;43.200;27.920;2023-08-21T17:38:35;14.93;;;7.18;;
6941;SDS011;3510;43.200;27.920;2023-08-21T17:41:01;11.48;;;7.35;;
6941;SDS011;3510;43.200;27.920;2023-08-21T17:43:28;38.38;;;8.60;;
6941;SDS011;3510;43.200;27.920;2023-08-21T17:45:56;8.93;;;8.07;;
6941;SDS011;3510;43.200;27.920;2023-08-21T17:48:23;7.82;;;6.30;;
6941;SDS011;3510;43.200;27.920;2023-08-21T17:50:50;16.70;;;7.00;;
6941;SDS011;3510;43.200;27.920;2023-08-21T17:53:16;11.90;;;6.00;;
6941;SDS011;3510;43.200;27.920;2023-08-21T17:55:43;6.43;;;5.93;;
6941;SDS011;3510;43.200;27.920;2023-08-21T17:58:09;12.55;;;9.38;;
6941;SDS011;3510;43.200;27.920;2023-08-21T18:00:36;13.10;;;11.80;;
6941;SDS011;3510;43.200;27.920;2023-08-21T18:03:04;13.00;;;10.10;;
6941;SDS011;3510;43.200;27.920;2023-08-21T18:05:31;10.65;;;6.28;;
6941;SDS011;3510;43.200;27.920;2023-08-21T18:07:58;8.68;;;5.82;;
6941;SDS011;3510;43.200;27.920;2023-08-21T18:10:25;11.48;;;6.38;;
6941;SDS011;3510;43.200;27.920;2023-08-21T18:12:52;10.38;;;6.95;;
6941;SDS011;3510;43.200;27.920;2023-08-21T18:15:18;12.23;;;6.38;;
6941;SDS011;3510;43.200;27.920;2023-08-21T18:17:45;6.53;;;5.45;;
6941;SDS011;3510;43.200;27.920;2023-08-21T18:20:13;13.07;;;6.75;;
6941;SDS011;3510;43.200;27.920;2023-08-21T18:22:40;14.45;;;8.40;;
6941;SDS011;3510;43.200;27.920;2023-08-21T18:25:06;24.20;;;16.30;;
6941;SDS011;3510;43.200;27.920;2023-08-21T18:27:33;35.08;;;15.18;;
6941;SDS011;3510;43.200;27.920;2023-08-21T18:30:00;22.98;;;10.25;;
6941;SDS011;3510;43.200;27.920;2023-08-21T18:32:29;12.40;;;7.75;;
6941;SDS011;3510;43.200;27.920;2023-08-21T18:34:56;14.02;;;8.32;;
6941;SDS011;3510;43.200;27.920;2023-08-21T18:37:24;25.85;;;11.25;;
6941;SDS011;3510;43.200;27.920;2023-08-21T18:39:51;23.45;;;14.90;;
6941;SDS011;3510;43.200;27.920;2023-08-21T18:42:18;10.50;;;7.70;;
6941;SDS011;3510;43.200;27.920;2023-08-21T18:44:44;15.88;;;8.25;;
6941;SDS011;3510;43.200;27.920;2023-08-21T18:47:11;9.00;;;7.28;;
6941;SDS011;3510;43.200;27.920;2023-08-21T18:49:38;11.02;;;7.28;;
6941;SDS011;3510;43.200;27.920;2023-08-21T18:52:05;21.10;;;9.70;;
6941;SDS011;3510;43.200;27.920;2023-08-21T18:54:34;21.58;;;11.13;;
6941;SDS011;3510;43.200;27.920;2023-08-21T18:57:00;12.00;;;9.00;;
6941;SDS011;3510;43.200;27.920;2023-08-21T18:59:27;15.25;;;10.50;;
6941;SDS011;3510;43.200;27.920;2023-08-21T19:01:54;23.48;;;12.23;;
6941;SDS011;3510;43.200;27.920;2023-08-21T19:04:21;25.67;;;18.02;;
6941;SDS011;3510;43.200;27.920;2023-08-21T19:06:48;46.13;;;25.63;;
6941;SDS011;3510;43.200;27.920;2023-08-21T19:09:15;34.03;;;14.45;;
6941;SDS011;3510;43.200;27.920;2023-08-21T19:11:44;10.88;;;6.60;;
6941;SDS011;3510;43.200;27.920;2023-08-21T19:14:10;14.50;;;10.60;;
6941;SDS011;3510;43.200;27.920;2023-08-21T19:16:37;19.02;;;10.38;;
6941;SDS011;3510;43.200;27.920;2023-08-21T19:19:04;8.55;;;7.78;;
6941;SDS011;3510;43.200;27.920;2023-08-21T19:21:30;22.70;;;9.63;;
6941;SDS011;3510;43.200;27.920;2023-08-21T19:23:57;12.68;;;6.68;;
6941;SDS011;3510;43.200;27.920;2023-08-21T19:26:24;9.25;;;7.05;;
6941;SDS011;3510;43.200;27.920;2023-08-21T19:28:52;8.57;;;7.05;;
6941;SDS011;3510;43.200;27.920;2023-08-21T19:31:18;6.72;;;6.00;;
6941;SDS011;3510;43.200;27.920;2023-08-21T19:33:45;10.98;;;5.88;;
6941;SDS011;3510;43.200;27.920;2023-08-21T19:36:12;6.88;;;6.18;;
6941;SDS011;3510;43.200;27.920;2023-08-21T19:38:39;7.88;;;6.47;;
6941;SDS011;3510;43.200;27.920;2023-08-21T19:41:09;7.15;;;6.28;;
6941;SDS011;3510;43.200;27.920;2023-08-21T19:43:37;9.60;;;6.15;;
6941;SDS011;3510;43.200;27.920;2023-08-21T19:46:09;11.48;;;6.68;;
6941;SDS011;3510;43.200;27.920;2023-08-21T19:48:36;10.15;;;6.28;;
6941;SDS011;3510;43.200;27.920;2023-08-21T19:51:03;9.00;;;6.45;;
6941;SDS011;3510;43.200;27.920;2023-08-21T19:53:29;8.70;;;6.45;;
6941;SDS011;3510;43.200;27.920;2023-08-21T19:55:56;11.77;;;7.05;;
6941;SDS011;3510;43.200;27.920;2023-08-21T19:58:23;9.85;;;6.88;;
6941;SDS011;3510;43.200;27.920;2023-08-21T20:00:49;11.05;;;6.63;;
6941;SDS011;3510;43.200;27.920;2023-08-21T20:03:17;7.65;;;7.00;;
6941;SDS011;3510;43.200;27.920;2023-08-21T20:05:45;13.52;;;7.55;;
6941;SDS011;3510;43.200;27.920;2023-08-21T20:08:13;11.45;;;7.38;;
6941;SDS011;3510;43.200;27.920;2023-08-21T20:10:40;14.30;;;7.15;;
6941;SDS011;3510;43.200;27.920;2023-08-21T20:13:07;15.07;;;7.40;;
6941;SDS011;3510;43.200;27.920;2023-08-21T20:15:33;16.92;;;8.20;;
6941;SDS011;3510;43.200;27.920;2023-08-21T20:18:00;18.65;;;7.68;;
6941;SDS011;3510;43.200;27.920;2023-08-21T20:20:28;20.40;;;7.53;;
6941;SDS011;3510;43.200;27.920;2023-08-21T20:22:55;18.17;;;8.02;;
6941;SDS011;3510;43.200;27.920;2023-08-21T20:25:22;20.00;;;9.23;;
6941;SDS011;3510;43.200;27.920;2023-08-21T20:27:49;9.52;;;6.88;;
6941;SDS011;3510;43.200;27.920;2023-08-21T20:30:15;11.68;;;6.13;;
6941;SDS011;3510;43.200;27.920;2023-08-21T20:32:42;8.38;;;5.93;;
6941;SDS011;3510;43.200;27.920;2023-08-21T20:35:10;10.73;;;6.72;;
6941;SDS011;3510;43.200;27.920;2023-08-21T20:37:37;9.52;;;5.88;;
6941;SDS011;3510;43.200;27.920;2023-08-21T20:40:05;8.18;;;6.07;;
6941;SDS011;3510;43.200;27.920;2023-08-21T20:42:34;13.73;;;6.30;;
6941;SDS011;3510;43.200;27.920;2023-08-21T20:45:01;14.18;;;6.22;;
6941;SDS011;3510;43.200;27.920;2023-08-21T20:47:29;11.40;;;6.57;;
6941;SDS011;3510;43.200;27.920;2023-08-21T20:49:57;8.85;;;5.50;;
6941;SDS011;3510;43.200;27.920;2023-08-21T20:52:24;10.68;;;6.13;;
